Time;durP1;ratioP1;P1;durP2;ratioP2;P2;SDS_P1;SDS_P2;PMS_P1;PMS_P2;Temp;Humidity;BMP_temperature;BMP_pressure;BME280_temperature;BME280_humidity;BME280_pressure;Samples;Min_cycle;Max_cycle;Signal;HPM_P1;HPM_P2
2021/04/01 00:00:47;;;;;;;22.80;11.15;;;;;;;6.22;74.45;97077.41;5012717;28;20042;-70
2021/04/01 00:03:14;;;;;;;18.00;10.98;;;;;;;6.19;74.93;97078.50;5010028;28;20125;-69
2021/04/01 00:05:41;;;;;;;20.17;12.18;;;;;;;6.19;75.33;97078.50;5009134;28;20054;-70
2021/04/01 00:08:08;;;;;;;21.13;11.90;;;;;;;6.20;75.57;97074.13;5010544;28;20132;-69
2021/04/01 00:10:42;;;;;;;23.98;12.20;;;;;;;6.09;75.23;97075.88;4996992;28;20382;-70
2021/04/01 00:13:09;;;;;;;21.42;11.63;;;;;;;6.28;74.41;97067.38;5008916;28;20052;-70
2021/04/01 00:15:38;;;;;;;29.80;15.90;;;;;;;6.29;74.40;97071.59;5009341;28;20516;-70
2021/04/01 00:18:16;;;;;;;32.25;16.17;;;;;;;6.17;74.94;97080.41;5013030;28;20046;-69
2021/04/01 00:20:43;;;;;;;;;;;;;;;6.00;74.97;97068.09;5010572;28;20061;-68
2021/04/01 00:23:09;;;;;;;49.33;22.50;;;;;;;5.65;76.02;97079.56;5009958;28;19936;-70
2021/04/01 00:25:35;;;;;;;44.75;21.10;;;;;;;5.69;76.95;97083.53;5008405;28;20049;-70
2021/04/01 00:28:02;;;;;;;54.60;25.90;;;;;;;5.88;76.27;97067.31;5007406;28;20081;-70
2021/04/01 00:30:29;;;;;;;65.47;28.25;;;;;;;5.98;75.43;97070.00;5010574;28;20576;-70
2021/04/01 00:32:55;;;;;;;37.25;18.60;;;;;;;6.10;74.46;97076.72;5012174;28;20049;-70
2021/04/01 00:35:21;;;;;;;66.97;29.90;;;;;;;6.19;73.74;97067.34;5008952;28;20038;-70
2021/04/01 00:37:48;;;;;;;55.70;26.48;;;;;;;6.06;74.52;97067.56;5008197;28;20056;-70
2021/04/01 00:40:14;;;;;;;37.40;19.60;;;;;;;5.72;75.50;97070.38;5006489;28;20057;-69
2021/04/01 00:42:41;;;;;;;38.40;20.67;;;;;;;5.73;75.71;97072.00;5012476;28;20497;-70
2021/04/01 00:45:10;;;;;;;34.97;17.15;;;;;;;5.69;75.86;97068.88;5007843;28;20061;-70
2021/04/01 00:47:46;;;;;;;29.90;14.93;;;;;;;5.55;75.78;97060.66;5006888;28;20120;-69
2021/04/01 00:50:16;;;;;;;28.27;14.65;;;;;;;5.75;76.00;97070.13;5009595;28;20437;-70
2021/04/01 00:52:42;;;;;;;22.90;12.45;;;;;;;5.93;74.22;97052.25;5009188;28;20052;-70
2021/04/01 00:55:10;;;;;;;24.38;14.00;;;;;;;5.82;74.74;97052.34;5008141;28;20077;-71
2021/04/01 00:57:39;;;;;;;32.65;16.27;;;;;;;6.05;74.55;97055.59;5008759;28;20096;-70
2021/04/01 01:00:11;;;;;;;29.58;15.25;;;;;;;5.80;75.28;97049.91;5010843;28;20069;-70
2021/04/01 01:02:38;;;;;;;27.70;14.70;;;;;;;5.85;73.99;97049.50;5004040;28;20441;-69
2021/04/01 01:05:05;;;;;;;19.70;12.23;;;;;;;5.47;75.55;97056.13;5012635;28;20548;-70
2021/04/01 01:07:31;;;;;;;;;;;;;;;5.40;75.30;97060.16;5010888;28;20038;-70
2021/04/01 01:09:58;;;;;;;20.67;13.02;;;;;;;5.19;76.72;97055.81;5007436;28;19922;-70
2021/04/01 01:12:24;;;;;;;20.63;11.20;;;;;;;5.25;76.27;97060.47;5009626;28;20136;-70
2021/04/01 01:14:50;;;;;;;21.98;12.30;;;;;;;5.46;75.91;97054.47;5009191;28;20203;-70
2021/04/01 01:17:16;;;;;;;37.53;15.93;;;;;;;5.79;74.64;97045.66;5004654;28;20068;-70
2021/04/01 01:19:50;;;;;;;49.30;23.42;;;;;;;5.90;74.50;97043.00;5009441;28;20137;-69
2021/04/01 01:22:18;;;;;;;42.28;19.17;;;;;;;5.83;74.36;97047.03;5005967;28;20050;-70
2021/04/01 01:24:44;;;;;;;50.60;22.00;;;;;;;5.72;74.32;97045.38;5008974;28;20034;-70
2021/04/01 01:27:11;;;;;;;31.15;15.23;;;;;;;5.35;75.22;97049.38;5008708;28;20050;-70
2021/04/01 01:29:37;;;;;;;33.25;17.08;;;;;;;5.29;75.59;97058.44;5010875;28;20117;-70
2021/04/01 01:32:04;;;;;;;33.42;16.23;;;;;;;4.84;77.57;97056.06;5008616;28;20437;-70
2021/04/01 01:34:30;;;;;;;24.88;13.10;;;;;;;4.56;77.50;97052.31;5007569;28;20453;-70
2021/04/01 01:36:56;;;;;;;34.28;16.02;;;;;;;4.77;77.28;97039.47;5007396;28;20069;-70
2021/04/01 01:39:22;;;;;;;24.38;12.93;;;;;;;4.82;77.19;97053.59;5004995;28;20041;-69
2021/04/01 01:41:48;;;;;;;27.02;12.82;;;;;;;4.77;76.53;97049.78;5007181;28;20064;-69
2021/04/01 01:44:14;;;;;;;23.30;12.68;;;;;;;4.84;76.13;97050.91;5007404;28;20042;-70
2021/04/01 01:46:40;;;;;;;25.27;14.63;;;;;;;4.86;76.26;97047.25;5006948;28;20042;-70
2021/04/01 01:49:07;;;;;;;32.53;15.40;;;;;;;4.80;76.89;97050.31;5005149;28;20045;-70
2021/04/01 01:51:33;;;;;;;27.02;14.18;;;;;;;4.75;76.58;97044.72;5007166;28;20044;-70
2021/04/01 01:53:59;;;;;;;27.10;15.05;;;;;;;4.92;76.14;97043.38;5006500;28;20726;-70
2021/04/01 01:56:27;;;;;;;21.17;11.85;;;;;;;4.54;78.03;97036.94;5003719;28;20050;-70
2021/04/01 01:58:54;;;;;;;;;;;;;;;4.71;78.52;97034.78;5010983;28;21425;-70
2021/04/01 02:01:22;;;;;;;24.35;13.05;;;;;;;4.77;77.40;97040.28;5008573;28;20039;-70
2021/04/01 02:03:48;;;;;;;20.60;11.75;;;;;;;5.10;76.15;97035.88;5007095;28;20751;-69
2021/04/01 02:06:16;;;;;;;26.75;13.73;;;;;;;4.61;76.95;97027.78;5009051;28;20405;-70
2021/04/01 02:08:42;;;;;;;;;;;;;;;4.98;76.29;97034.34;5009840;28;20121;-70
2021/04/01 02:11:08;;;;;;;24.75;11.82;;;;;;;4.96;76.64;97021.56;5007451;28;19925;-70
2021/04/01 02:13:34;;;;;;;23.15;12.60;;;;;;;4.94;76.51;97020.84;5011449;28;20088;-70
2021/04/01 02:16:03;;;;;;;23.67;12.35;;;;;;;5.03;76.29;97027.84;5008075;28;20167;-71
2021/04/01 02:18:30;;;;;;;24.15;11.82;;;;;;;4.95;75.76;97019.91;5010999;28;20103;-70
2021/04/01 02:20:58;;;;;;;22.90;12.50;;;;;;;5.09;75.91;97019.59;5012558;28;20042;-70
2021/04/01 02:23:26;;;;;;;15.68;9.10;;;;;;;5.99;73.80;97017.34;5010057;28;20120;-70
2021/04/01 02:25:54;;;;;;;14.63;7.70;;;;;;;6.83;70.14;97022.13;5013800;28;20045;-70
2021/04/01 02:28:24;;;;;;;14.00;7.00;;;;;;;6.95;69.21;97018.44;5011745;28;20045;-70
2021/04/01 02:30:53;;;;;;;20.52;9.88;;;;;;;5.94;73.87;97027.25;5014598;28;20572;-70
2021/04/01 02:33:21;;;;;;;20.98;10.15;;;;;;;5.51;74.97;97032.50;5015699;28;20038;-70
2021/04/01 02:35:47;;;;;;;16.45;10.38;;;;;;;4.85;76.91;97026.78;5010226;28;20140;-70
2021/04/01 02:38:13;;;;;;;23.42;10.73;;;;;;;5.11;76.68;97024.63;5013612;28;20046;-70
2021/04/01 02:40:42;;;;;;;15.77;6.87;;;;;;;6.49;70.40;97020.72;5011045;28;20052;-70
2021/04/01 02:43:10;;;;;;;16.77;7.28;;;;;;;6.40;71.02;97024.13;5018017;28;20037;-70
2021/04/01 02:45:36;;;;;;;14.82;6.10;;;;;;;6.74;69.34;97021.16;5012680;28;20052;-70
2021/04/01 02:48:03;;;;;;;13.73;6.63;;;;;;;6.98;67.71;97005.22;5015326;28;20038;-70
2021/04/01 02:50:29;;;;;;;11.75;5.70;;;;;;;7.95;64.09;97007.53;5011611;28;20083;-70
2021/04/01 02:52:55;;;;;;;14.07;4.68;;;;;;;8.38;62.27;96997.47;5014798;28;20482;-70
2021/04/01 02:55:21;;;;;;;10.38;4.82;;;;;;;8.45;61.58;97002.94;5011634;28;20096;-71
2021/04/01 02:57:47;;;;;;;8.30;4.88;;;;;;;8.34;61.93;97001.34;5014699;28;20484;-70
2021/04/01 03:00:19;;;;;;;10.70;4.67;;;;;;;8.59;60.92;97005.00;5008524;28;20068;-69
2021/04/01 03:02:51;;;;;;;11.65;4.43;;;;;;;8.68;60.52;97004.13;5012665;28;20069;-69
2021/04/01 03:05:17;;;;;;;9.07;4.57;;;;;;;8.54;61.02;97004.63;5011534;28;20050;-69
2021/04/01 03:07:43;;;;;;;16.98;4.80;;;;;;;8.51;61.07;96997.16;5009695;28;21875;-70
2021/04/01 03:10:12;;;;;;;11.02;4.22;;;;;;;8.67;60.43;97001.69;5012159;28;20045;-70
2021/04/01 03:12:39;;;;;;;9.60;4.57;;;;;;;8.59;60.51;96999.81;5005347;28;20055;-71
2021/04/01 03:15:07;;;;;;;8.90;3.97;;;;;;;8.81;59.84;96993.38;5007626;28;20042;-70
2021/04/01 03:17:34;;;;;;;10.10;4.03;;;;;;;8.96;58.93;97006.63;5010851;28;20066;-70
2021/04/01 03:20:00;;;;;;;11.82;4.22;;;;;;;8.91;58.89;97001.91;5014050;28;20101;-70
2021/04/01 03:22:26;;;;;;;11.27;4.30;;;;;;;8.68;59.54;96998.94;5010026;28;20042;-71
2021/04/01 03:24:52;;;;;;;10.23;4.75;;;;;;;8.67;59.73;96999.88;5013145;28;20473;-70
2021/04/01 03:27:18;;;;;;;20.20;4.80;;;;;;;8.53;60.48;96995.25;5013762;28;20052;-68
2021/04/01 03:30:03;;;;;;;13.15;4.78;;;;;;;8.49;60.48;96993.91;5013370;28;20102;-70
2021/04/01 03:32:31;;;;;;;10.40;4.25;;;;;;;8.67;59.68;96989.50;5013615;28;20069;-70
2021/04/01 03:34:57;;;;;;;11.57;4.72;;;;;;;8.48;60.51;96992.25;5013705;28;20446;-70
2021/04/01 03:37:23;;;;;;;12.30;4.38;;;;;;;8.58;60.04;96993.00;5012130;28;20049;-70
2021/04/01 03:39:50;;;;;;;11.35;5.03;;;;;;;8.48;60.42;96987.06;5013055;28;20065;-70
2021/04/01 03:42:16;;;;;;;9.52;4.15;;;;;;;8.58;60.19;96993.00;5007325;28;20046;-70
2021/04/01 03:44:44;;;;;;;10.57;4.55;;;;;;;8.57;59.98;96988.75;5010667;28;20050;-70
2021/04/01 03:47:10;;;;;;;12.20;5.10;;;;;;;8.42;60.63;96988.47;5014553;28;20060;-70
2021/04/01 03:49:37;;;;;;;9.82;4.53;;;;;;;8.41;60.62;96980.84;5014060;28;20092;-70
2021/04/01 03:52:04;;;;;;;17.55;5.50;;;;;;;8.46;60.51;96989.81;5013417;28;20077;-70
2021/04/01 03:54:30;;;;;;;14.73;5.32;;;;;;;8.34;61.10;96988.38;5012036;28;20081;-70
2021/04/01 03:56:57;;;;;;;12.63;5.07;;;;;;;8.36;61.03;96995.03;5013928;28;20557;-69
2021/04/01 03:59:28;;;;;;;10.55;4.75;;;;;;;8.22;61.45;96982.56;5012850;28;20060;-70
2021/04/01 04:02:23;;;;;;;9.18;4.88;;;;;;;8.23;61.05;96984.19;5010962;28;20037;-70
2021/04/01 04:05:30;;;;;;;12.98;5.03;;;;;;;8.36;60.20;96989.84;5009476;28;20188;-69
2021/04/01 04:13:26;;;;;;;16.50;5.18;;;;;;;7.04;66.35;96981.38;4971343;28;20061;-70
2021/04/01 04:15:52;;;;;;;10.80;4.95;;;;;;;7.65;63.20;96985.28;4993629;28;20054;-70
2021/04/01 04:18:20;;;;;;;10.80;5.57;;;;;;;8.00;61.56;96977.78;5012306;28;20076;-70
2021/04/01 04:20:47;;;;;;;13.45;4.68;;;;;;;8.14;60.65;96979.88;5012070;28;20057;-70
2021/04/01 04:23:15;;;;;;;10.52;5.05;;;;;;;7.64;63.88;96978.50;5010439;28;20042;-69
2021/04/01 04:25:41;;;;;;;11.48;4.50;;;;;;;7.70;62.54;96983.13;5012042;28;20473;-70
2021/04/01 04:28:15;;;;;;;11.85;4.57;;;;;;;8.22;59.90;96976.56;5003705;28;20089;-70
2021/04/01 04:30:41;;;;;;;10.10;5.10;;;;;;;7.64;62.91;96968.13;5010167;28;20130;-70
2021/04/01 04:33:07;;;;;;;14.48;5.22;;;;;;;7.62;62.25;96975.22;5017352;28;20133;-70
2021/04/01 04:35:33;;;;;;;10.82;4.50;;;;;;;7.27;63.81;96975.88;5009624;28;20038;-70
2021/04/01 04:38:00;;;;;;;17.45;5.10;;;;;;;7.63;62.34;96965.69;5008039;28;20050;-69
2021/04/01 04:40:28;;;;;;;10.55;4.15;;;;;;;7.63;62.02;96968.25;5010787;28;20042;-70
2021/04/01 04:42:55;;;;;;;13.65;4.03;;;;;;;8.01;60.58;96971.63;5015671;28;20081;-69
2021/04/01 04:45:21;;;;;;;10.73;3.78;;;;;;;7.78;61.29;96974.59;5010054;28;20037;-69
2021/04/01 04:47:47;;;;;;;14.18;4.63;;;;;;;7.90;60.68;96968.28;5010023;28;20127;-69
2021/04/01 04:50:14;;;;;;;19.52;4.85;;;;;;;8.24;59.24;96972.84;5009089;28;20042;-69
2021/04/01 04:52:41;;;;;;;7.97;4.07;;;;;;;8.24;59.27;96972.06;5013518;28;20088;-69
2021/04/01 04:55:10;;;;;;;10.00;3.88;;;;;;;8.20;59.29;96971.53;5008870;28;20060;-69
2021/04/01 04:57:42;;;;;;;13.82;3.95;;;;;;;7.73;61.45;96982.81;5011416;28;20393;-69
2021/04/01 05:05:21;;;;;;;15.25;6.72;;;;;;;7.92;61.09;96992.28;5007332;28;20088;-68
2021/04/01 05:07:47;;;;;;;9.15;5.50;;;;;;;7.11;64.94;96985.06;5011572;28;20069;-68
2021/04/01 05:10:16;;;;;;;10.65;5.00;;;;;;;7.49;63.89;96991.09;5008368;28;20099;-69
2021/04/01 05:12:42;;;;;;;19.10;4.57;;;;;;;7.65;61.54;96985.28;5008654;28;20049;-70
2021/04/01 05:15:09;;;;;;;21.02;4.70;;;;;;;7.72;61.88;96990.72;5011805;28;20423;-70
2021/04/01 05:17:35;;;;;;;18.80;4.18;;;;;;;8.44;58.83;97003.88;5008586;28;20121;-69
2021/04/01 05:20:05;;;;;;;9.10;3.60;;;;;;;8.73;57.18;96999.31;5003997;28;20042;-69
2021/04/01 05:24:59;;;;;;;21.77;4.22;;;;;;;8.28;59.94;97000.13;5008969;28;20129;-69
2021/04/01 05:27:30;;;;;;;13.95;3.55;;;;;;;8.61;58.30;96997.88;5013036;28;20033;-69
2021/04/01 05:30:02;;;;;;;11.85;3.95;;;;;;;8.60;59.94;96998.88;5010136;28;20127;-69
2021/04/01 05:32:33;;;;;;;9.60;3.60;;;;;;;8.41;62.18;97002.41;5011795;28;20616;-69
2021/04/01 05:35:02;;;;;;;14.68;4.40;;;;;;;8.26;61.13;96998.66;5009601;28;20042;-69
2021/04/01 05:37:28;;;;;;;13.32;3.58;;;;;;;8.30;60.33;96995.63;5005210;28;20108;-69
2021/04/01 05:39:55;;;;;;;22.77;4.20;;;;;;;8.33;59.38;96994.50;5012279;28;20038;-69
2021/04/01 05:42:24;;;;;;;21.27;4.90;;;;;;;8.58;59.46;96999.97;5009503;28;20112;-71
2021/04/01 05:44:56;;;;;;;12.35;3.65;;;;;;;8.99;56.74;97006.31;5008417;28;20096;-69
2021/04/01 05:50:38;;;;;;;18.48;4.05;;;;;;;9.31;55.96;97000.56;5012854;28;20581;-67
2021/04/01 05:59:12;;;;;;;12.88;3.92;;;;;;;9.77;54.71;96995.13;5012381;28;20160;-68
2021/04/01 06:04:37;;;;;;;11.65;4.30;;;;;;;9.91;55.86;96997.16;5012982;28;20511;-68
2021/04/01 06:07:11;;;;;;;9.30;3.50;;;;;;;10.10;53.72;97001.28;5009788;28;20061;-69
2021/04/01 06:09:45;;;;;;;9.82;3.45;;;;;;;10.22;53.10;96999.19;5009359;28;20499;-68
2021/04/01 06:12:12;;;;;;;7.22;3.28;;;;;;;10.34;53.35;97004.97;5008767;28;20060;-68
2021/04/01 06:15:02;;;;;;;6.90;3.30;;;;;;;10.39;52.97;97006.13;5011676;28;20073;-68
2021/04/01 06:17:32;;;;;;;10.73;3.03;;;;;;;10.51;53.33;97003.22;5010059;28;20041;-69
2021/04/01 06:20:05;;;;;;;9.77;3.47;;;;;;;10.55;52.49;97004.53;5008778;28;20056;-69
2021/04/01 06:22:32;;;;;;;10.45;3.65;;;;;;;10.62;52.47;97002.91;5009217;28;20050;-68
2021/04/01 06:24:59;;;;;;;10.65;3.35;;;;;;;10.65;51.58;97010.41;5007724;28;20048;-68
2021/04/01 06:28:14;;;;;;;10.63;3.92;;;;;;;10.82;51.37;97002.63;5009641;28;20156;-68
2021/04/01 06:30:24;;;;;;;10.40;3.00;;;;;;;10.95;50.76;97002.94;5000540;28;20549;-68
2021/04/01 06:33:22;;;;;;;18.58;3.72;;;;;;;11.17;50.00;97004.06;5009415;28;20046;-69
2021/04/01 06:36:03;;;;;;;8.87;2.53;;;;;;;11.20;49.90;97001.97;5006057;28;20042;-69
2021/04/01 06:38:35;;;;;;;8.27;3.50;;;;;;;11.23;50.48;96997.41;5004547;28;20037;-69
2021/04/01 06:41:05;;;;;;;10.32;3.00;;;;;;;11.26;50.21;97002.28;5008248;28;20045;-69
2021/04/01 06:43:53;;;;;;;14.20;3.15;;;;;;;11.27;49.28;97002.13;5004034;28;20041;-68
2021/04/01 06:46:20;;;;;;;9.55;3.40;;;;;;;11.32;49.83;97004.22;5003613;28;20053;-69
2021/04/01 06:49:08;;;;;;;13.27;3.50;;;;;;;11.52;49.99;97013.31;5003944;28;20107;-55
2021/04/01 06:52:04;;;;;;;10.25;3.70;;;;;;;11.74;49.12;97003.16;5007076;28;20125;-69
2021/04/01 06:54:38;;;;;;;10.63;3.60;;;;;;;11.91;48.47;97006.56;5005734;28;20525;-69
2021/04/01 07:06:05;;;;;;;11.05;3.47;;;;;;;12.31;47.21;97002.97;5013357;28;20120;-70
2021/04/01 07:08:51;;;;;;;9.65;3.08;;;;;;;12.31;46.98;96997.75;5013424;28;20030;-69
2021/04/01 07:11:31;;;;;;;12.50;3.65;;;;;;;12.91;46.10;96998.84;5010574;28;20421;-70
2021/04/01 07:14:24;;;;;;;11.20;3.35;;;;;;;13.30;45.23;97008.34;5010831;28;20092;-68
2021/04/01 07:17:01;;;;;;;12.57;3.75;;;;;;;13.37;44.79;97000.59;5002836;28;20141;-68
2021/04/01 07:20:07;;;;;;;14.10;3.88;;;;;;;13.19;45.02;97011.38;5011625;28;20042;-68
2021/04/01 07:47:23;;;;;;;12.38;4.10;;;;;;;14.83;41.04;96999.81;5012188;28;20042;-71
2021/04/01 07:49:52;;;;;;;8.07;3.35;;;;;;;15.18;40.88;97002.56;5010455;28;20446;-70
2021/04/01 07:52:21;;;;;;;12.15;3.97;;;;;;;15.81;40.32;97005.25;5010661;28;20128;-69
2021/04/01 07:57:38;;;;;;;10.02;4.38;;;;;;;16.22;38.15;96996.56;5012805;28;20124;-68
2021/04/01 08:00:22;;;;;;;20.20;4.20;;;;;;;16.31;39.05;97005.06;5003643;28;20139;-69
2021/04/01 08:03:07;;;;;;;15.88;4.07;;;;;;;15.64;39.40;97002.09;5009692;28;20105;-69
2021/04/01 08:05:40;;;;;;;7.97;3.65;;;;;;;16.61;38.85;97007.38;5008518;28;20053;-69
2021/04/01 08:08:10;;;;;;;10.27;3.70;;;;;;;16.58;37.94;96994.66;5011543;28;20527;-69
2021/04/01 08:10:44;;;;;;;9.50;3.67;;;;;;;16.78;36.90;97002.56;5013234;28;20125;-70
2021/04/01 08:13:15;;;;;;;12.68;3.85;;;;;;;16.33;39.21;97008.31;5000014;28;20506;-58
2021/04/01 08:15:49;;;;;;;11.35;3.72;;;;;;;16.89;38.41;96999.41;5007763;28;20497;-56
2021/04/01 08:20:47;;;;;;;10.43;3.42;;;;;;;17.42;37.15;96995.94;5005879;28;20079;-60
2021/04/01 08:23:41;;;;;;;14.65;4.32;;;;;;;17.21;37.93;96997.78;5010426;28;20050;-58
2021/04/01 08:35:35;;;;;;;13.38;4.05;;;;;;;17.87;36.54;96990.84;5006267;28;20034;-58
2021/04/01 08:38:21;;;;;;;11.98;3.90;;;;;;;18.02;36.82;96980.88;5003266;28;20053;-58
2021/04/01 08:41:34;;;;;;;11.18;3.88;;;;;;;19.33;35.55;96973.44;5008266;28;20451;-59
2021/04/01 08:44:41;;;;;;;10.35;3.80;;;;;;;18.49;35.83;96983.31;4999284;28;20390;-59
2021/04/01 08:48:03;;;;;;;13.38;4.28;;;;;;;19.02;34.97;96982.19;5004856;28;20064;-59
2021/04/01 08:50:38;;;;;;;10.18;4.28;;;;;;;18.60;35.42;96968.63;5008208;28;20137;-59
2021/04/01 08:53:33;;;;;;;13.98;5.00;;;;;;;18.98;34.91;96971.25;5004494;28;20042;-55
2021/04/01 08:56:24;;;;;;;12.73;4.68;;;;;;;19.36;34.87;96966.91;5005174;28;20034;-61
2021/04/01 08:58:59;;;;;;;11.23;4.53;;;;;;;20.06;34.81;96956.81;5012145;28;20088;-60
2021/04/01 09:01:36;;;;;;;17.70;4.10;;;;;;;21.03;34.46;96971.00;5007446;28;20042;-59
2021/04/01 09:04:03;;;;;;;;;;;;;;;19.82;34.50;96963.03;5007653;28;20045;-60
2021/04/01 09:06:40;;;;;;;14.02;4.63;;;;;;;21.24;32.85;96959.88;5009645;28;20458;-58
2021/04/01 09:09:12;;;;;;;13.07;4.80;;;;;;;20.88;32.74;96961.66;5010490;28;20046;-58
2021/04/01 09:11:49;;;;;;;15.85;5.40;;;;;;;21.05;32.94;96958.34;5007079;28;20474;-56
2021/04/01 09:14:28;;;;;;;7.60;4.27;;;;;;;21.76;32.93;96959.19;5006412;28;20409;-57
2021/04/01 09:17:15;;;;;;;11.13;4.55;;;;;;;21.35;32.25;96955.59;5009774;28;20537;-59
2021/04/01 09:19:43;;;;;;;11.70;5.68;;;;;;;21.82;31.79;96950.28;5010355;28;20076;-63
2021/04/01 09:22:20;;;;;;;11.55;5.32;;;;;;;23.05;30.65;96942.00;5004790;28;20486;-70
2021/04/01 09:25:00;;;;;;;11.13;5.25;;;;;;;23.57;29.18;96944.34;5007327;28;20038;-71
2021/04/01 09:27:26;;;;;;;11.60;5.38;;;;;;;27.34;24.60;96937.50;5012535;28;20077;-71
2021/04/01 09:30:13;;;;;;;17.23;5.75;;;;;;;29.46;21.09;96940.66;5009040;28;20052;-71
2021/04/01 09:32:41;;;;;;;10.80;5.50;;;;;;;28.75;22.02;96934.81;5008547;28;20084;-72
2021/04/01 09:35:10;;;;;;;13.85;6.18;;;;;;;28.78;21.83;96932.34;5005926;28;20057;-71
2021/04/01 09:38:06;;;;;;;22.30;6.32;;;;;;;31.26;19.32;96939.88;5008559;28;20038;-71
2021/04/01 09:40:36;;;;;;;12.18;6.15;;;;;;;29.58;20.84;96941.06;5008979;28;20048;-71
2021/04/01 09:43:18;;;;;;;16.25;6.95;;;;;;;32.76;18.29;96927.75;5006982;28;20038;-72
2021/04/01 09:45:45;;;;;;;18.58;6.88;;;;;;;31.30;18.87;96946.25;5004225;28;20144;-71
2021/04/01 09:48:13;;;;;;;15.45;6.47;;;;;;;32.44;18.56;96940.31;5010060;28;20049;-71
2021/04/01 09:50:42;;;;;;;11.20;6.47;;;;;;;32.59;18.02;96936.50;5008515;28;20048;-71
2021/04/01 09:53:16;;;;;;;14.15;6.05;;;;;;;33.16;17.83;96927.88;5005670;28;20391;-72
2021/04/01 09:55:44;;;;;;;12.75;6.18;;;;;;;33.63;16.78;96931.00;5009197;28;20041;-71
2021/04/01 09:58:25;;;;;;;13.68;6.10;;;;;;;32.70;17.92;96929.75;5008075;28;20046;-71
2021/04/01 10:03:22;;;;;;;19.00;6.40;;;;;;;32.51;17.96;96924.50;5011927;28;20695;-71
2021/04/01 10:05:51;;;;;;;15.63;6.30;;;;;;;33.03;17.57;96919.53;5011123;28;20104;-71
2021/04/01 10:08:26;;;;;;;15.60;7.25;;;;;;;36.50;15.19;96924.34;5007958;28;20500;-71
2021/04/01 10:10:56;;;;;;;18.27;6.50;;;;;;;34.97;15.44;96917.84;5008893;28;20046;-71
2021/04/01 10:13:24;;;;;;;16.27;7.07;;;;;;;32.94;16.93;96917.91;5011670;28;20046;-71
2021/04/01 10:15:53;;;;;;;21.75;7.20;;;;;;;33.26;16.84;96916.84;5010338;28;20096;-73
2021/04/01 10:18:41;;;;;;;13.60;6.72;;;;;;;36.97;13.70;96913.25;5008383;28;20046;-71
2021/04/01 10:21:07;;;;;;;21.73;7.28;;;;;;;36.50;14.66;96899.94;5023773;28;20085;-71
2021/04/01 10:23:43;;;;;;;;;;;;;;;39.88;12.53;96889.06;5013585;28;20042;-71
2021/04/01 10:26:11;;;;;;;18.05;7.00;;;;;;;36.78;13.75;96897.47;5010616;28;19993;-72
2021/04/01 10:28:43;;;;;;;16.33;7.40;;;;;;;38.48;15.24;96888.97;5010546;28;20046;-71
2021/04/01 10:31:10;;;;;;;16.80;7.55;;;;;;;39.74;12.63;96897.69;5010120;28;20203;-73
2021/04/01 10:34:08;;;;;;;15.40;8.05;;;;;;;39.78;11.39;96879.50;5011735;28;20069;-71
2021/04/01 10:36:39;;;;;;;12.38;7.05;;;;;;;40.69;11.38;96872.84;5013154;28;20076;-70
2021/04/01 10:39:11;;;;;;;13.88;7.47;;;;;;;41.29;10.18;96866.16;5019078;28;20049;-69
2021/04/01 10:41:49;;;;;;;15.60;7.75;;;;;;;41.78;11.23;96861.84;5010965;28;20140;-66
2021/04/01 10:44:17;;;;;;;15.63;6.93;;;;;;;40.95;10.72;96863.22;5013452;28;20085;-67
2021/04/01 10:46:55;;;;;;;14.32;7.63;;;;;;;40.77;10.39;96856.63;5009734;28;20045;-68
2021/04/01 10:49:24;;;;;;;14.68;6.10;;;;;;;41.35;11.29;96858.44;5012362;28;20145;-60
2021/04/01 10:51:55;;;;;;;12.88;6.05;;;;;;;41.13;10.95;96854.53;5013918;28;20540;-62
2021/04/01 10:54:23;;;;;;;17.50;7.00;;;;;;;40.94;9.95;96847.19;5006094;28;20034;-60
2021/04/01 10:56:55;;;;;;;16.08;5.65;;;;;;;39.76;11.77;96848.31;5007460;28;20062;-60
2021/04/01 10:59:51;;;;;;;10.52;5.00;;;;;;;41.84;9.35;96841.25;5005199;28;20558;-60
2021/04/01 11:02:19;;;;;;;11.02;5.60;;;;;;;42.08;10.51;96840.00;5001175;28;20065;-61
2021/04/01 11:04:57;;;;;;;10.70;4.30;;;;;;;40.91;12.56;96843.25;5010276;28;20038;-60
2021/04/01 11:07:26;;;;;;;10.68;3.47;;;;;;;41.55;11.59;96840.78;5006882;28;20430;-61
2021/04/01 11:09:54;;;;;;;8.00;3.60;;;;;;;41.62;11.86;96832.75;5007966;28;20049;-61
2021/04/01 11:12:21;;;;;;;8.95;2.78;;;;;;;40.40;12.49;96838.00;5005613;28;20053;-61
2021/04/01 11:14:53;;;;;;;7.05;3.28;;;;;;;40.51;12.54;96828.06;5010217;28;20033;-60
2021/04/01 11:17:24;;;;;;;7.97;4.43;;;;;;;40.83;11.50;96831.44;5013416;28;20046;-60
2021/04/01 11:19:56;;;;;;;15.82;4.07;;;;;;;40.85;11.27;96825.59;5011613;28;20092;-61
2021/04/01 11:22:22;;;;;;;9.77;5.00;;;;;;;40.05;9.86;96826.00;5010117;28;20129;-58
2021/04/01 11:24:49;;;;;;;14.10;4.22;;;;;;;42.14;9.46;96824.84;5010019;28;20041;-60
2021/04/01 11:27:19;;;;;;;8.88;3.47;;;;;;;41.86;10.71;96822.53;5005036;28;20137;-59
2021/04/01 11:29:54;;;;;;;4.97;3.75;;;;;;;40.12;12.22;96832.75;5004098;28;20154;-60
2021/04/01 11:32:26;;;;;;;8.95;3.70;;;;;;;39.96;12.41;96828.13;5009544;28;20049;-60
2021/04/01 11:34:56;;;;;;;6.05;4.15;;;;;;;41.13;11.18;96841.69;5006134;28;20044;-59
2021/04/01 11:37:26;;;;;;;9.27;3.95;;;;;;;43.08;10.41;96826.66;5009979;28;20038;-60
2021/04/01 11:39:58;;;;;;;7.78;4.28;;;;;;;41.89;9.92;96817.13;5010905;28;20069;-60
2021/04/01 11:42:24;;;;;;;18.75;5.35;;;;;;;43.96;8.90;96810.44;5009654;28;20038;-61
2021/04/01 11:45:00;;;;;;;13.88;5.38;;;;;;;42.43;11.12;96801.38;5008620;28;20081;-69
2021/04/01 11:47:30;;;;;;;12.97;4.93;;;;;;;42.36;8.73;96800.47;5009985;28;20048;-70
2021/04/01 11:49:56;;;;;;;12.48;5.13;;;;;;;43.99;9.41;96783.03;5012806;28;20041;-70
2021/04/01 11:52:24;;;;;;;11.43;4.75;;;;;;;43.26;9.68;96786.53;5009300;28;20038;-70
2021/04/01 11:54:52;;;;;;;10.15;5.00;;;;;;;44.16;8.97;96783.50;5010166;28;20035;-70
2021/04/01 11:57:30;;;;;;;9.38;4.50;;;;;;;44.65;7.82;96782.09;5012593;28;20056;-70
2021/04/01 12:00:05;;;;;;;10.00;4.25;;;;;;;45.07;8.08;96777.81;5007527;28;20398;-70
2021/04/01 12:02:45;;;;;;;11.95;4.50;;;;;;;44.21;7.45;96781.19;5007141;28;20056;-69
2021/04/01 12:05:15;;;;;;;10.90;5.13;;;;;;;42.99;9.39;96779.63;5011274;28;20561;-69
2021/04/01 12:07:41;;;;;;;9.82;4.47;;;;;;;43.68;8.98;96774.28;5010886;28;20057;-72
2021/04/01 12:10:11;;;;;;;20.38;5.32;;;;;;;46.86;7.36;96773.63;5008916;28;20126;-69
2021/04/01 12:12:37;;;;;;;15.95;5.53;;;;;;;44.29;9.38;96769.06;5010590;28;20123;-70
2021/04/01 12:15:04;;;;;;;12.23;4.80;;;;;;;45.92;7.29;96768.63;5008043;28;20046;-69
2021/04/01 12:17:39;;;;;;;9.57;5.13;;;;;;;44.75;9.21;96761.28;5006785;28;20042;-69
2021/04/01 12:20:10;;;;;;;10.00;5.00;;;;;;;44.34;9.94;96758.88;5012276;28;20522;-69
2021/04/01 12:22:44;;;;;;;15.73;5.18;;;;;;;41.54;10.42;96745.56;5012692;28;20042;-70
2021/04/01 12:25:16;;;;;;;11.57;4.60;;;;;;;44.84;9.14;96743.28;5008906;28;20470;-70
2021/04/01 12:27:55;;;;;;;9.95;5.38;;;;;;;44.35;8.60;96742.03;5008424;28;20049;-71
2021/04/01 12:30:37;;;;;;;7.10;4.82;;;;;;;43.98;8.39;96725.84;5011710;28;20120;-70
2021/04/01 12:33:09;;;;;;;23.27;5.55;;;;;;;44.20;8.67;96724.75;5006250;28;20037;-69
2021/04/01 12:35:35;;;;;;;11.25;4.97;;;;;;;44.58;9.15;96714.25;5006059;28;20043;-69
2021/04/01 12:38:04;;;;;;;21.90;5.47;;;;;;;45.49;7.56;96716.53;5009834;28;20045;-69
2021/04/01 12:40:38;;;;;;;13.27;5.47;;;;;;;41.79;8.26;96718.59;5003356;28;20046;-70
2021/04/01 12:43:06;;;;;;;12.10;5.28;;;;;;;41.99;8.85;96711.78;5008592;28;21932;-69
2021/04/01 12:45:33;;;;;;;8.10;5.15;;;;;;;42.62;10.53;96714.81;5008067;28;20049;-69
2021/04/01 12:48:15;;;;;;;15.80;5.00;;;;;;;44.17;7.20;96706.31;5011200;28;20113;-69
2021/04/01 12:50:48;;;;;;;12.23;4.63;;;;;;;43.75;8.20;96706.97;5010263;28;20050;-69
2021/04/01 12:53:21;;;;;;;12.23;4.57;;;;;;;44.09;9.28;96700.06;5006860;28;20050;-70
2021/04/01 12:55:50;;;;;;;9.10;4.68;;;;;;;45.07;8.37;96690.72;5008570;28;20046;-70
2021/04/01 12:58:24;;;;;;;11.02;5.25;;;;;;;41.19;9.89;96703.72;5006707;28;20042;-69
2021/04/01 13:00:56;;;;;;;15.27;6.18;;;;;;;43.79;9.26;96697.56;5007839;28;20058;-69
2021/04/01 13:03:22;;;;;;;9.80;4.80;;;;;;;44.11;9.60;96694.16;5010984;28;20042;-69
2021/04/01 13:05:51;;;;;;;11.75;5.05;;;;;;;42.99;10.24;96695.56;5004904;28;20104;-69
2021/04/01 13:10:45;;;;;;;11.95;5.65;;;;;;;43.51;8.55;96684.53;5008961;28;20049;-70